Time;durP1;ratioP1;P1;durP2;ratioP2;P2;SDS_P1;SDS_P2;PMS_P1;PMS_P2;Temp;Humidity;BMP_temperature;BMP_pressure;BME280_temperature;BME280_humidity;BME280_pressure;Samples;Min_cycle;Max_cycle;Signal;HPM_P1;HPM_P2
2022/03/20 00:02:41;;;;;;;14.13;9.70;;;14.30;54.70;;;;;;10492259;28;20245;-80
2022/03/20 00:07:46;;;;;;;15.90;10.17;;;14.30;54.80;;;;;;10492452;28;20257;-80
2022/03/20 00:12:48;;;;;;;15.30;9.73;;;14.20;54.90;;;;;;10492702;28;20271;-80
2022/03/20 00:17:51;;;;;;;19.00;12.60;;;14.30;54.90;;;;;;10488100;28;20234;-80
2022/03/20 00:22:56;;;;;;;15.10;9.83;;;13.60;51.80;;;;;;10493014;28;20623;-80
2022/03/20 00:27:58;;;;;;;14.60;9.43;;;13.40;56.60;;;;;;10492784;28;20268;-80
2022/03/20 00:33:01;;;;;;;19.77;11.17;;;13.40;56.60;;;;;;10490907;28;20230;-80
2022/03/20 00:38:05;;;;;;;14.60;10.03;;;13.70;55.40;;;;;;10493270;28;20225;-80
2022/03/20 00:43:07;;;;;;;16.63;10.60;;;13.70;56.10;;;;;;10474982;28;20206;-80
2022/03/20 00:48:10;;;;;;;14.83;10.77;;;13.80;55.60;;;;;;10492420;28;20246;-80
2022/03/20 00:53:13;;;;;;;19.67;11.70;;;13.40;55.80;;;;;;10438145;28;20655;-80
2022/03/20 00:58:15;;;;;;;18.40;11.37;;;11.80;57.20;;;;;;10492524;28;20280;-80
2022/03/20 01:03:18;;;;;;;16.63;11.70;;;11.90;58.90;;;;;;10490282;28;20488;-80
2022/03/20 01:08:20;;;;;;;14.77;9.67;;;11.70;58.90;;;;;;10473177;28;20210;-80
2022/03/20 01:13:23;;;;;;;15.60;10.50;;;12.20;59.50;;;;;;10492579;28;20221;-80
2022/03/20 01:18:26;;;;;;;16.33;11.17;;;12.60;58.90;;;;;;10492424;28;20216;-80
2022/03/20 01:23:29;;;;;;;14.83;10.10;;;12.90;57.70;;;;;;10491077;28;20239;-80
2022/03/20 01:28:31;;;;;;;16.47;10.27;;;12.60;58.20;;;;;;10491644;28;20308;-80
2022/03/20 01:33:34;;;;;;;21.37;13.83;;;12.50;58.70;;;;;;10491217;28;20279;-80
2022/03/20 01:38:37;;;;;;;18.93;11.73;;;12.40;58.00;;;;;;10480082;28;20677;-80
2022/03/20 01:43:49;;;;;;;22.80;14.03;;;12.50;57.90;;;;;;10485777;28;20229;-80
2022/03/20 01:48:51;;;;;;;17.47;10.80;;;11.20;58.20;;;;;;10472998;28;20663;-80
2022/03/20 01:53:54;;;;;;;15.13;10.50;;;10.70;62.60;;;;;;10491319;28;20275;-80
2022/03/20 01:58:57;;;;;;;21.67;13.93;;;11.40;60.90;;;;;;10489896;28;20226;-80
2022/03/20 02:04:00;;;;;;;15.07;9.97;;;11.90;59.30;;;;;;10490135;28;20284;-79
2022/03/20 02:09:04;;;;;;;22.90;14.53;;;12.30;59.60;;;;;;10470581;28;20245;-80
2022/03/20 02:14:07;;;;;;;14.17;9.30;;;12.40;57.00;;;;;;10474393;28;20202;-80
2022/03/20 02:19:13;;;;;;;15.67;9.73;;;12.50;58.90;;;;;;10481041;28;20222;-80
2022/03/20 02:24:34;;;;;;;12.23;10.10;;;12.70;58.70;;;;;;10494850;28;20700;-80
2022/03/20 02:29:37;;;;;;;19.17;12.90;;;12.70;58.00;;;;;;10496375;28;20722;-80
2022/03/20 02:34:40;;;;;;;14.50;10.30;;;12.70;57.70;;;;;;10497560;28;20996;-80
2022/03/20 02:39:43;;;;;;;21.50;13.63;;;12.80;57.10;;;;;;10497192;28;20683;-80
2022/03/20 02:45:06;;;;;;;12.57;9.17;;;13.00;56.60;;;;;;10462940;28;20246;-80
2022/03/20 02:50:17;;;;;;;13.97;9.43;;;12.90;58.00;;;;;;10495999;28;20722;-80
2022/03/20 02:55:28;;;;;;;13.67;10.00;;;12.90;57.70;;;;;;10478913;28;20195;-80
2022/03/20 03:00:32;;;;;;;17.00;11.63;;;12.70;58.20;;;;;;10496518;28;20221;-79
2022/03/20 03:05:35;;;;;;;13.30;9.47;;;12.50;57.50;;;;;;10494262;28;20272;-80
2022/03/20 03:16:05;;;;;;;16.17;10.60;;;12.40;57.70;;;;;;10477531;28;20279;-79
2022/03/20 03:21:13;;;;;;;13.03;8.87;;;13.30;57.20;;;;;;10476787;28;20261;-80
2022/03/20 03:26:16;;;;;;;14.60;9.30;;;13.50;56.30;;;;;;10464242;28;20700;-79
2022/03/20 03:31:18;;;;;;;16.23;10.47;;;13.70;56.10;;;;;;10471706;28;20707;-79
2022/03/20 03:36:21;;;;;;;21.63;14.33;;;13.90;55.40;;;;;;10492525;28;20727;-80
2022/03/20 03:41:24;;;;;;;15.67;10.70;;;12.60;55.20;;;;;;10494938;28;20222;-79
2022/03/20 03:46:27;;;;;;;16.67;10.50;;;12.00;58.60;;;;;;10477408;28;20267;-80
2022/03/20 03:51:29;;;;;;;15.87;9.97;;;13.10;57.30;;;;;;10475958;28;20703;-80
2022/03/20 03:56:33;;;;;;;36.83;22.17;;;13.70;55.90;;;;;;10493718;28;20275;-80
2022/03/20 04:01:35;;;;;;;17.67;10.53;;;12.20;47.10;;;;;;10493590;28;20226;-80
2022/03/20 04:06:38;;;;;;;19.40;11.93;;;12.70;58.10;;;;;;10493164;28;20287;-79
2022/03/20 04:11:41;;;;;;;18.57;12.37;;;13.00;56.10;;;;;;10489328;28;20242;-80
2022/03/20 04:16:43;;;;;;;27.03;16.30;;;11.80;53.30;;;;;;10491769;28;20219;-80
2022/03/20 04:21:48;;;;;;;14.93;10.67;;;11.50;57.40;;;;;;10472486;28;20302;-80
2022/03/20 04:26:50;;;;;;;25.47;17.13;;;12.30;58.00;;;;;;10473010;28;20230;-79
2022/03/20 04:31:54;;;;;;;22.87;15.23;;;12.30;53.80;;;;;;10473115;28;20241;-79
2022/03/20 04:36:58;;;;;;;20.27;13.87;;;11.50;58.20;;;;;;10471029;28;20283;-80
2022/03/20 04:42:01;;;;;;;24.93;15.63;;;10.80;57.50;;;;;;10472831;28;20752;-79
2022/03/20 04:58:29;;;;;;;28.67;17.80;;;9.90;60.70;;;;;;10491522;28;20291;-79
2022/03/20 05:03:13;;;;;;;18.10;12.33;;;12.40;58.60;;;;;;10450653;28;20222;-79
2022/03/20 05:08:16;;;;;;;16.53;11.87;;;12.10;58.50;;;;;;10450932;28;20288;-80
2022/03/20 05:13:21;;;;;;;18.77;12.30;;;11.70;59.80;;;;;;10421026;28;20230;-79
2022/03/20 05:18:24;;;;;;;13.57;10.13;;;12.00;58.80;;;;;;10490630;28;20233;-79
2022/03/20 05:23:26;;;;;;;14.27;10.67;;;11.60;59.90;;;;;;10490607;28;20295;-79
2022/03/20 05:28:29;;;;;;;17.47;12.03;;;12.10;59.70;;;;;;10491592;28;20250;-79
2022/03/20 05:33:32;;;;;;;30.47;18.73;;;12.40;58.70;;;;;;10489965;28;20229;-80
2022/03/20 05:38:36;;;;;;;37.03;22.97;;;11.70;56.00;;;;;;10489468;28;20644;-80
2022/03/20 05:43:38;;;;;;;16.23;11.37;;;9.70;56.60;;;;;;10489502;28;20221;-80
2022/03/20 05:48:41;;;;;;;21.57;13.43;;;11.00;62.70;;;;;;10490728;28;20332;-79
2022/03/20 05:53:44;;;;;;;20.37;12.43;;;12.20;58.20;;;;;;10497718;28;20619;-79
2022/03/20 05:58:46;;;;;;;17.50;11.90;;;12.60;57.70;;;;;;10498262;28;20276;-80
2022/03/20 06:03:49;;;;;;;22.33;12.93;;;12.90;57.30;;;;;;10480374;28;20218;-80
2022/03/20 06:08:52;;;;;;;18.87;11.80;;;13.10;56.90;;;;;;10478766;28;20238;-80
2022/03/20 06:13:55;;;;;;;15.30;11.10;;;13.60;55.70;;;;;;10497889;28;20187;-80
2022/03/20 06:18:58;;;;;;;30.43;19.67;;;13.70;53.80;;;;;;10476671;28;20551;-79
2022/03/20 06:24:00;;;;;;;26.63;16.23;;;12.30;53.30;;;;;;10479682;28;20225;-80
2022/03/20 06:29:07;;;;;;;21.10;14.13;;;12.90;55.40;;;;;;10496450;28;20242;-80
2022/03/20 06:34:10;;;;;;;21.07;13.10;;;12.00;57.30;;;;;;10475390;28;20226;-80
2022/03/20 06:39:13;;;;;;;17.93;11.20;;;10.10;59.90;;;;;;10495937;28;20268;-80
2022/03/20 06:44:16;;;;;;;21.00;14.50;;;11.60;59.50;;;;;;10496370;28;20222;-80
2022/03/20 06:49:19;;;;;;;32.03;19.40;;;10.40;53.60;;;;;;10477883;28;20295;-79
2022/03/20 06:54:21;;;;;;;14.13;10.23;;;11.40;51.50;;;;;;10464166;28;20222;-80
2022/03/20 06:59:24;;;;;;;28.13;17.43;;;12.50;57.90;;;;;;10496632;28;20195;-80
2022/03/20 07:04:26;;;;;;;17.80;10.57;;;13.40;52.20;;;;;;10478436;28;20210;-79
2022/03/20 07:09:29;;;;;;;15.30;10.27;;;13.70;55.50;;;;;;10495688;28;20615;-80
2022/03/20 07:14:31;;;;;;;19.47;13.43;;;14.00;54.60;;;;;;10478456;28;20287;-80
2022/03/20 07:19:35;;;;;;;18.97;14.10;;;13.60;52.30;;;;;;10478184;28;20237;-79
2022/03/20 07:24:40;;;;;;;16.50;11.27;;;14.00;54.80;;;;;;10482416;28;20288;-80
2022/03/20 07:29:43;;;;;;;15.00;10.37;;;14.50;53.90;;;;;;10458947;28;20753;-79
2022/03/20 07:34:46;;;;;;;16.23;11.17;;;14.50;53.80;;;;;;10476347;28;20226;-80
2022/03/20 07:39:50;;;;;;;15.43;11.30;;;14.30;52.70;;;;;;10479126;28;20234;-80
2022/03/20 07:44:53;;;;;;;16.93;12.40;;;14.10;54.20;;;;;;10475858;28;20244;-80
2022/03/20 07:49:55;;;;;;;21.47;15.10;;;14.40;51.70;;;;;;10493155;28;20707;-80
2022/03/20 07:54:58;;;;;;;25.50;15.87;;;14.50;50.40;;;;;;10491737;28;20276;-80
2022/03/20 08:00:01;;;;;;;16.17;10.60;;;14.70;51.60;;;;;;10492208;28;20245;-80
2022/03/20 08:05:13;;;;;;;14.90;10.87;;;14.70;53.20;;;;;;10501372;28;20744;-80
2022/03/20 08:10:15;;;;;;;12.83;9.77;;;14.70;52.90;;;;;;10491936;28;20241;-80
2022/03/20 08:15:18;;;;;;;19.30;13.47;;;14.70;52.40;;;;;;10492826;28;20218;-79
2022/03/20 08:20:20;;;;;;;23.03;12.93;;;14.80;52.10;;;;;;10490971;28;20294;-80
2022/03/20 08:25:23;;;;;;;17.03;12.43;;;14.30;51.60;;;;;;10491428;28;20253;-80
2022/03/20 08:30:26;;;;;;;19.13;13.33;;;14.60;52.90;;;;;;10492589;28;20242;-80
2022/03/20 08:35:28;;;;;;;17.53;11.70;;;14.80;51.10;;;;;;10492409;28;20264;-80
2022/03/20 08:40:33;;;;;;;15.13;11.37;;;14.80;52.50;;;;;;10468359;28;20870;-80
2022/03/20 08:45:35;;;;;;;21.50;16.30;;;14.90;52.20;;;;;;10482775;28;20680;-80
2022/03/20 08:50:38;;;;;;;19.17;12.40;;;15.00;48.50;;;;;;10491706;28;20303;-84
2022/03/20 08:55:40;;;;;;;17.57;12.00;;;14.50;51.80;;;;;;10470365;28;20230;-80
2022/03/20 09:00:44;;;;;;;15.50;11.43;;;15.10;51.70;;;;;;10496944;28;20215;-80
2022/03/20 09:05:46;;;;;;;14.40;11.07;;;15.20;51.20;;;;;;10481909;28;20226;-81
2022/03/20 09:10:50;;;;;;;15.07;10.17;;;15.30;50.40;;;;;;10491043;28;20238;-81
2022/03/20 09:18:59;;;;;;;20.63;13.77;;;15.40;51.00;;;;;;10490262;28;20658;-80
2022/03/20 09:21:15;;;;;;;13.80;10.93;;;15.40;50.10;;;;;;10491756;28;20237;-80
2022/03/20 09:26:18;;;;;;;15.37;11.57;;;15.30;50.40;;;;;;10491722;28;20222;-80
2022/03/20 09:31:21;;;;;;;17.17;11.80;;;14.90;50.50;;;;;;10490718;28;20689;-79
2022/03/20 09:36:24;;;;;;;16.90;10.93;;;15.00;51.30;;;;;;10443999;28;20264;-80
2022/03/20 09:41:32;;;;;;;14.87;10.17;;;15.20;51.10;;;;;;10475081;28;20691;-80
2022/03/20 09:46:36;;;;;;;16.83;11.80;;;15.50;50.60;;;;;;10488988;28;20229;-80
2022/03/20 09:51:40;;;;;;;15.70;9.77;;;15.30;49.60;;;;;;10489990;28;20726;-80
2022/03/20 09:56:43;;;;;;;15.83;12.10;;;15.40;50.10;;;;;;10489274;28;20229;-80
2022/03/20 10:01:45;;;;;;;16.43;11.10;;;15.10;48.20;;;;;;10484721;28;20205;-80
2022/03/20 10:06:48;;;;;;;20.73;13.60;;;15.20;50.80;;;;;;10486219;28;20267;-80
2022/03/20 10:12:00;;;;;;;20.67;13.70;;;15.10;50.30;;;;;;10490999;28;20299;-80
2022/03/20 10:17:14;;;;;;;18.37;12.47;;;14.60;43.70;;;;;;10487789;28;20222;-81
2022/03/20 10:22:19;;;;;;;18.63;13.13;;;14.90;53.40;;;;;;10479878;28;20206;-81
2022/03/20 10:27:22;;;;;;;33.17;17.43;;;15.50;51.30;;;;;;10488743;28;20687;-80
2022/03/20 10:32:24;;;;;;;19.63;14.60;;;14.20;48.90;;;;;;10488026;28;20257;-80
2022/03/20 10:37:48;;;;;;;21.53;15.60;;;15.00;48.80;;;;;;10495295;28;20230;-81
2022/03/20 10:43:23;;;;;;;27.67;17.70;;;14.50;44.30;;;;;;10495683;28;20703;-81
2022/03/20 10:48:35;;;;;;;21.80;16.40;;;13.60;43.10;;;;;;10324384;28;20268;-81
2022/03/20 10:53:57;;;;;;;25.87;16.67;;;14.10;53.20;;;;;;10328748;28;20641;-88
2022/03/20 10:59:11;;;;;;;28.70;16.43;;;12.60;41.00;;;;;;10271786;28;20697;-84
2022/03/20 11:04:16;;;;;;;25.67;16.27;;;13.60;43.50;;;;;;10309269;28;20720;-88
2022/03/20 11:09:18;;;;;;;25.00;13.87;;;13.70;54.00;;;;;;10268938;28;20249;-86
2022/03/20 11:14:22;;;;;;;20.60;12.73;;;14.10;37.80;;;;;;10271005;28;20706;-86
2022/03/20 11:19:29;;;;;;;21.83;13.57;;;14.00;39.30;;;;;;10324065;28;20225;-85
2022/03/20 11:24:33;;;;;;;22.17;13.13;;;13.80;36.60;;;;;;10459482;28;20241;-86
2022/03/20 11:29:44;;;;;;;21.23;12.03;;;13.80;37.70;;;;;;10478442;28;20261;-86
2022/03/20 11:34:48;;;;;;;20.03;11.87;;;13.00;36.00;;;;;;10517940;28;20237;-86
2022/03/20 11:40:13;;;;;;;32.17;12.63;;;13.90;38.20;;;;;;10487497;28;20233;-86
2022/03/20 11:45:20;;;;;;;20.93;12.23;;;13.80;37.40;;;;;;10494520;28;20229;-86
2022/03/20 11:50:24;;;;;;;17.17;12.03;;;13.80;37.40;;;;;;10466917;28;20715;-86
2022/03/20 11:55:41;;;;;;;27.00;12.33;;;13.80;36.50;;;;;;10476624;28;20182;-86
2022/03/20 12:00:45;;;;;;;18.30;11.23;;;13.40;35.80;;;;;;10480025;28;20190;-86
2022/03/20 12:06:02;;;;;;;20.83;11.50;;;13.40;36.20;;;;;;10493526;28;20237;-86
2022/03/20 12:11:39;;;;;;;17.73;11.83;;;13.50;37.50;;;;;;10493404;28;20647;-86
2022/03/20 12:16:49;;;;;;;19.83;13.40;;;13.70;37.00;;;;;;10493523;28;20271;-86
2022/03/20 12:22:00;;;;;;;30.20;12.13;;;13.70;36.80;;;;;;10492507;28;20291;-86
2022/03/20 12:27:25;;;;;;;29.90;13.90;;;13.50;35.70;;;;;;10492719;28;20299;-85
2022/03/20 12:32:47;;;;;;;18.13;11.97;;;13.60;36.40;;;;;;10473608;28;20246;-86
2022/03/20 12:37:52;;;;;;;21.83;11.83;;;13.70;36.90;;;;;;10473841;28;20267;-86
2022/03/20 12:43:20;;;;;;;19.77;12.40;;;13.50;37.40;;;;;;10492462;28;20255;-87
2022/03/20 12:48:23;;;;;;;19.93;11.37;;;13.50;36.80;;;;;;10282759;28;20277;-86
2022/03/20 12:53:43;;;;;;;14.23;10.50;;;13.60;35.50;;;;;;10283556;28;20319;-86
2022/03/20 12:58:45;;;;;;;14.60;9.87;;;13.70;36.40;;;;;;10267166;28;20240;-85
2022/03/20 13:03:48;;;;;;;16.43;10.00;;;14.20;43.00;;;;;;10315781;28;20258;-85
2022/03/20 13:08:51;;;;;;;14.93;10.60;;;14.30;39.10;;;;;;10259907;28;20385;-83
2022/03/20 13:14:14;;;;;;;18.73;11.97;;;14.30;40.80;;;;;;10320271;28;20248;-82
2022/03/20 13:19:34;;;;;;;16.10;11.63;;;14.70;39.80;;;;;;10281200;28;20999;-82
2022/03/20 13:24:49;;;;;;;19.87;12.80;;;14.10;40.50;;;;;;10381592;28;20238;-82
2022/03/20 13:29:53;;;;;;;15.70;9.13;;;14.80;40.00;;;;;;10452476;28;20226;-82
2022/03/20 13:34:56;;;;;;;16.03;10.60;;;14.50;44.40;;;;;;10477005;28;20214;-82
2022/03/20 13:39:58;;;;;;;13.83;9.83;;;14.80;42.10;;;;;;10489277;28;20291;-82
2022/03/20 13:45:01;;;;;;;18.53;10.53;;;14.60;39.90;;;;;;10494044;28;20239;-83
2022/03/20 13:50:04;;;;;;;15.70;10.47;;;14.40;40.70;;;;;;10456049;28;20262;-83
2022/03/20 13:55:21;;;;;;;16.07;10.47;;;15.00;41.30;;;;;;9733909;28;10000799;-83
2022/03/20 14:00:58;;;;;;;15.57;11.53;;;14.80;42.90;;;;;;10474884;28;20260;-82
2022/03/20 14:06:00;;;;;;;16.40;11.43;;;14.40;44.40;;;;;;10490104;28;20252;-83
2022/03/20 14:11:06;;;;;;;15.70;11.30;;;14.90;43.10;;;;;;10493655;28;20312;-83
2022/03/20 14:16:08;;;;;;;20.23;12.40;;;14.50;44.80;;;;;;10497204;28;20225;-83
2022/03/20 14:21:22;;;;;;;19.00;10.77;;;15.10;44.10;;;;;;10120819;28;9999625;-85
2022/03/20 14:26:26;;;;;;;14.47;9.67;;;15.40;46.80;;;;;;10483990;28;20279;-83
2022/03/20 14:42:26;;;;;;;15.10;10.67;;;15.50;42.30;;;;;;10493233;28;20233;-82
2022/03/20 14:47:29;;;;;;;15.00;10.80;;;15.20;35.80;;;;;;10492689;28;20294;-82
2022/03/20 14:52:32;;;;;;;14.63;10.03;;;15.30;41.70;;;;;;10491806;28;20266;-82
2022/03/20 14:57:35;;;;;;;13.40;10.33;;;15.30;42.80;;;;;;10477752;28;20226;-82
2022/03/20 15:02:37;;;;;;;17.03;11.60;;;15.20;44.20;;;;;;10497046;28;20678;-82
2022/03/20 15:11:23;;;;;;;14.80;10.83;;;15.40;44.40;;;;;;10495584;28;20226;-83
2022/03/20 15:13:02;;;;;;;16.13;10.07;;;15.20;43.90;;;;;;10495628;28;20249;-83
2022/03/20 15:18:05;;;;;;;12.63;10.33;;;14.90;42.70;;;;;;10496015;28;20279;-80
2022/03/20 15:23:07;;;;;;;16.63;9.20;;;15.10;44.00;;;;;;10494692;28;20229;-79
2022/03/20 15:28:10;;;;;;;15.60;11.33;;;15.30;39.40;;;;;;10460908;28;20758;-78
2022/03/20 15:33:12;;;;;;;13.90;10.07;;;15.00;45.20;;;;;;10495281;28;20311;-78
2022/03/20 15:38:18;;;;;;;11.97;9.87;;;15.20;42.60;;;;;;10489305;28;20230;-78
2022/03/20 15:43:22;;;;;;;15.27;11.57;;;14.80;50.50;;;;;;10478696;28;20283;-79
2022/03/20 15:48:24;;;;;;;16.10;11.80;;;15.50;46.30;;;;;;10476158;28;20992;-78
2022/03/20 15:53:27;;;;;;;14.30;10.00;;;15.40;45.50;;;;;;10494555;28;20313;-78
2022/03/20 15:58:41;;;;;;;20.03;13.97;;;15.30;41.90;;;;;;10493551;28;20809;-78
2022/03/20 16:03:44;;;;;;;16.60;11.73;;;15.10;41.40;;;;;;10484861;28;20226;-78
2022/03/20 16:08:51;;;;;;;14.80;10.03;;;14.50;45.20;;;;;;10452458;28;20676;-80
2022/03/20 16:14:14;;;;;;;15.37;10.03;;;14.10;38.20;;;;;;10479514;28;20274;-80
2022/03/20 16:19:16;;;;;;;18.13;11.20;;;13.50;42.40;;;;;;10474022;28;20666;-80
2022/03/20 16:29:40;;;;;;;16.03;10.33;;;14.00;47.20;;;;;;10493112;28;20225;-80
2022/03/20 16:34:45;;;;;;;15.43;10.77;;;13.70;40.70;;;;;;10492163;28;20222;-80
2022/03/20 16:39:47;;;;;;;38.33;13.00;;;13.40;48.20;;;;;;10473452;28;20222;-79
2022/03/20 16:44:54;;;;;;;20.13;12.00;;;13.20;42.60;;;;;;10491691;28;20218;-79
2022/03/20 16:49:56;;;;;;;20.87;11.43;;;12.80;41.10;;;;;;10472755;28;20596;-79
2022/03/20 16:54:59;;;;;;;14.60;11.00;;;12.60;40.70;;;;;;10488155;28;20300;-79
2022/03/20 17:00:02;;;;;;;21.73;13.90;;;12.20;51.10;;;;;;10472696;28;20230;-79
2022/03/20 17:05:05;;;;;;;22.30;13.70;;;10.90;38.10;;;;;;10471388;28;20303;-79
2022/03/20 17:10:09;;;;;;;32.17;14.30;;;10.20;38.80;;;;;;10459541;28;20237;-79
2022/03/20 17:15:16;;;;;;;31.07;17.03;;;9.00;39.80;;;;;;10489430;28;20252;-78
2022/03/20 17:20:19;;;;;;;27.37;15.07;;;9.30;40.30;;;;;;10469798;28;20213;-78
2022/03/20 17:25:22;;;;;;;29.13;16.40;;;7.90;41.20;;;;;;10490847;28;20230;-85
2022/03/20 17:30:25;;;;;;;19.33;12.63;;;7.70;46.20;;;;;;10472542;28;20680;-78
2022/03/20 17:35:28;;;;;;;20.07;14.33;;;9.80;58.80;;;;;;10488617;28;20256;-80
2022/03/20 17:40:31;;;;;;;17.80;11.57;;;9.90;45.70;;;;;;10490684;28;20244;-80
2022/03/20 17:45:37;;;;;;;28.23;16.13;;;10.80;55.00;;;;;;10438437;28;20278;-80
2022/03/20 17:50:39;;;;;;;25.47;14.67;;;12.20;47.40;;;;;;10437603;28;20655;-80
2022/03/20 17:55:46;;;;;;;26.37;15.00;;;11.40;54.20;;;;;;10440325;28;20226;-79
2022/03/20 18:00:49;;;;;;;25.93;16.43;;;11.30;53.30;;;;;;10457165;28;20745;-80
2022/03/20 18:11:14;;;;;;;34.17;17.40;;;9.10;44.80;;;;;;10476913;28;20293;-80
2022/03/20 18:19:39;;;;;;;36.23;17.63;;;7.60;43.70;;;;;;10486172;28;20559;-79
2022/03/20 18:24:41;;;;;;;34.90;17.67;;;6.30;47.40;;;;;;10484410;28;20206;-80
2022/03/20 18:29:44;;;;;;;23.77;13.93;;;6.20;47.80;;;;;;10484610;28;20264;-80
2022/03/20 18:34:46;;;;;;;32.90;17.43;;;10.00;61.00;;;;;;10485190;28;20218;-79
2022/03/20 18:39:49;;;;;;;36.10;18.90;;;9.30;45.70;;;;;;10479734;28;20232;-79
2022/03/20 18:44:52;;;;;;;35.87;17.57;;;8.10;46.60;;;;;;10483563;28;20273;-79
2022/03/20 18:49:55;;;;;;;29.17;15.93;;;6.80;48.50;;;;;;10483553;28;20234;-83
2022/03/20 18:54:58;;;;;;;28.00;15.13;;;;;;;;;;10483135;28;20257;-79
2022/03/20 19:00:03;;;;;;;25.90;15.07;;;6.90;52.60;;;;;;10485443;28;20226;-79
2022/03/20 19:05:10;;;;;;;32.37;16.50;;;7.30;51.60;;;;;;10484647;28;20222;-79
2022/03/20 19:10:14;;;;;;;31.53;16.70;;;6.70;49.70;;;;;;10482366;28;20230;-78
2022/03/20 19:15:20;;;;;;;29.77;16.73;;;5.60;52.10;;;;;;10468127;28;20312;-78
2022/03/20 19:20:23;;;;;;;22.57;15.03;;;6.00;53.50;;;;;;10464282;28;20650;-79
2022/03/20 19:25:25;;;;;;;30.17;14.07;;;6.10;53.60;;;;;;10452541;28;20292;-79
2022/03/20 19:30:28;;;;;;;30.83;14.10;;;6.50;53.40;;;;;;10447739;28;20676;-79
2022/03/20 19:40:52;;;;;;;25.20;14.63;;;7.90;56.60;;;;;;10454350;28;20204;-79
2022/03/20 19:45:55;;;;;;;24.13;13.93;;;9.20;48.30;;;;;;10455331;28;20261;-80
2022/03/20 19:50:59;;;;;;;21.33;14.27;;;8.80;52.30;;;;;;10421505;28;20235;-80
2022/03/20 19:56:02;;;;;;;22.70;14.10;;;8.90;56.40;;;;;;10445990;28;20239;-81
2022/03/20 20:01:04;;;;;;;32.53;15.97;;;8.60;51.20;;;;;;10453001;28;20689;-80
2022/03/20 20:06:07;;;;;;;28.70;16.80;;;8.20;50.10;;;;;;10424242;28;20269;-80
2022/03/20 20:11:09;;;;;;;25.87;15.53;;;7.70;50.00;;;;;;10453209;28;20223;-80
2022/03/20 20:16:12;;;;;;;27.63;16.90;;;7.50;48.50;;;;;;10454363;28;20653;-80
2022/03/20 20:21:15;;;;;;;28.57;16.43;;;6.60;50.00;;;;;;10453417;28;20578;-80
2022/03/20 20:26:23;;;;;;;30.23;16.37;;;7.20;53.60;;;;;;10455281;28;20268;-81
2022/03/20 20:31:26;;;;;;;25.93;15.93;;;5.80;51.30;;;;;;10453752;28;20261;-79
2022/03/20 20:36:34;;;;;;;24.10;16.20;;;7.00;57.40;;;;;;10446562;28;20794;-80
2022/03/20 20:41:37;;;;;;;28.87;17.40;;;6.50;53.50;;;;;;10449618;28;20344;-80
2022/03/20 20:46:40;;;;;;;31.03;17.47;;;5.40;52.10;;;;;;10451176;28;20232;-78
2022/03/20 20:51:45;;;;;;;30.03;18.07;;;5.60;61.30;;;;;;10451642;28;20260;-79
2022/03/20 20:56:48;;;;;;;34.10;18.73;;;5.80;51.60;;;;;;10451208;28;20250;-79
2022/03/20 21:01:50;;;;;;;37.63;19.10;;;4.80;53.60;;;;;;10451318;28;20249;-79
2022/03/20 21:12:16;;;;;;;31.50;17.97;;;4.80;60.80;;;;;;10451838;28;20215;-79
2022/03/20 21:17:19;;;;;;;35.70;18.47;;;5.10;60.50;;;;;;10452138;28;20247;-79
2022/03/20 21:22:21;;;;;;;63.57;20.40;;;4.50;57.30;;;;;;10453191;28;20233;-82
2022/03/20 21:27:24;;;;;;;34.83;19.87;;;4.00;56.10;;;;;;10435025;28;20199;-79
2022/03/20 21:32:30;;;;;;;35.73;20.10;;;3.80;58.50;;;;;;10449727;28;20550;-80
2022/03/20 21:37:33;;;;;;;34.63;19.63;;;4.20;57.60;;;;;;10451332;28;20296;-80
2022/03/20 21:42:35;;;;;;;37.97;20.23;;;4.60;55.70;;;;;;10455310;28;20236;-84
2022/03/20 21:47:39;;;;;;;28.40;16.73;;;4.80;54.00;;;;;;10456663;28;20246;-83
2022/03/20 21:52:41;;;;;;;23.37;14.90;;;5.30;60.30;;;;;;10452969;28;20252;-81
2022/03/20 21:57:44;;;;;;;30.10;17.23;;;6.50;67.60;;;;;;10465802;28;20225;-85
2022/03/20 22:02:50;;;;;;;32.73;18.40;;;4.60;53.80;;;;;;10477352;28;20213;-80
2022/03/20 22:07:53;;;;;;;36.17;18.30;;;4.00;55.60;;;;;;10440028;28;20207;-81
2022/03/20 22:12:59;;;;;;;24.53;16.67;;;5.20;56.30;;;;;;10483342;28;20207;-82
2022/03/20 22:18:04;;;;;;;24.10;15.70;;;5.10;61.60;;;;;;10495503;28;20257;-81
2022/03/20 22:23:08;;;;;;;43.53;22.50;;;5.10;64.20;;;;;;10474974;28;20241;-80
2022/03/20 22:28:12;;;;;;;34.77;20.83;;;3.70;56.60;;;;;;10457470;28;20217;-78
2022/03/20 22:33:14;;;;;;;48.93;25.57;;;3.50;58.30;;;;;;10457832;28;20191;-79
2022/03/20 22:38:17;;;;;;;32.23;18.53;;;3.00;59.20;;;;;;10440606;28;20646;-79
2022/03/20 22:43:19;;;;;;;42.00;20.97;;;3.60;67.20;;;;;;10411276;28;20200;-79
2022/03/20 22:53:43;;;;;;;64.33;26.00;;;3.40;59.80;;;;;;10438576;28;20199;-79
2022/03/20 22:58:46;;;;;;;66.43;30.57;;;2.50;60.70;;;;;;10409883;28;20321;-79
2022/03/20 23:03:49;;;;;;;44.63;21.30;;;2.20;62.80;;;;;;10437185;28;20195;-78
2022/03/20 23:08:53;;;;;;;46.07;23.13;;;2.00;62.60;;;;;;10457244;28;20199;-79
2022/03/20 23:13:57;;;;;;;40.80;20.47;;;2.70;61.80;;;;;;10456375;28;20203;-83
2022/03/20 23:19:06;;;;;;;38.80;20.83;;;2.20;62.10;;;;;;10439885;28;20685;-82
2022/03/20 23:24:08;;;;;;;39.33;21.13;;;1.60;64.20;;;;;;10456224;28;20241;-81
2022/03/20 23:29:11;;;;;;;43.50;22.13;;;1.20;65.20;;;;;;10455858;28;20195;-82
2022/03/20 23:34:14;;;;;;;36.63;21.27;;;0.90;66.70;;;;;;10454091;28;20226;-83
2022/03/20 23:39:16;;;;;;;34.40;17.77;;;1.00;66.40;;;;;;10450880;28;20328;-79
2022/03/20 23:44:20;;;;;;;29.13;18.50;;;0.80;66.80;;;;;;10455057;28;20281;-78
2022/03/20 23:49:22;;;;;;;31.07;18.37;;;0.30;68.70;;;;;;10437276;28;20603;-78
2022/03/20 23:54:25;;;;;;;29.93;18.47;;;0.20;69.20;;;;;;10454094;28;20230;-78
2022/03/20 23:59:27;;;;;;;33.27;18.77;;;-0.20;70.70;;;;;;10454413;28;20289;-78
